Terminal Aerodrome Forecast
Issued by NWS

Home | Current Version | Previous Version | Text Only | Print | Product List | Glossary On
Versions: 1 2 3 4 5 6 7 8 9 10 11 12 13 14 15 16 17 18 19 20 21 22 23 24 25 26
000
FTUS45 KGJT 060928 AAA
TAFVEL
TAF AMD
KVEL 060928Z 0609/0706 25007KT P6SM VCSH SCT120 OVC200
      TEMPO 0609/0612 15010G15KT -RA BKN060 BKN080
     FM061200 05008KT P6SM BKN150
     FM061700 09006KT P6SM VCSH SCT100 BKN200
     FM062000 20010G20KT P6SM VCSH SCT100 BKN250
     FM062100 21011G20KT P6SM VCSH BKN100
     FM070100 25010KT P6SM VCSH BKN080
     FM070300 01007KT P6SM VCSH BKN080=

USA.gov is the U.S. government's official web portal to all federal, state and local government web resources and services.